Time;durP1;ratioP1;P1;durP2;ratioP2;P2;SDS_P1;SDS_P2;PMS_P1;PMS_P2;Temp;Humidity;BMP_temperature;BMP_pressure;BME280_temperature;BME280_humidity;BME280_pressure;Samples;Min_cycle;Max_cycle;Signal;HPM_P1;HPM_P2
2022/04/15 00:02:12;;;;;;;5.78;3.65;;;;;;;;;;4995247;28;20096;-67
2022/04/15 00:04:39;;;;;;;5.90;3.60;;;;;;;;;;4995630;28;20497;-66
2022/04/15 00:07:06;;;;;;;8.63;3.97;;;;;;;;;;4997417;28;20046;-67
2022/04/15 00:09:35;;;;;;;5.03;3.83;;;;;;;;;;4999124;28;20101;-66
2022/04/15 00:12:06;;;;;;;7.95;4.30;;;;;;;;;;4995370;28;20498;-68
2022/04/15 00:14:34;;;;;;;3.10;2.80;;;;;;;;;;4995699;28;20050;-67
2022/04/15 00:17:01;;;;;;;5.32;3.90;;;;;;;;;;4995278;28;20061;-67
2022/04/15 00:19:28;;;;;;;5.20;3.70;;;;;;;;;;4995285;28;20057;-65
2022/04/15 00:21:55;;;;;;;5.28;3.58;;;;;;;;;;4994962;28;20129;-64
2022/04/15 00:24:21;;;;;;;3.78;3.20;;;;;;;;;;4995013;28;20050;-65
2022/04/15 00:26:48;;;;;;;6.13;3.58;;;;;;;;;;4995335;28;20054;-66
2022/04/15 00:29:15;;;;;;;5.53;3.30;;;;;;;;;;4994859;28;20108;-66
2022/04/15 00:31:42;;;;;;;5.90;3.53;;;;;;;;;;4994821;28;20453;-66
2022/04/15 00:34:08;;;;;;;6.15;3.65;;;;;;;;;;4994764;28;20054;-66
2022/04/15 00:36:35;;;;;;;5.00;3.10;;;;;;;;;;4994895;28;20560;-67
2022/04/15 00:39:02;;;;;;;5.90;3.67;;;;;;;;;;4994951;28;20105;-66
2022/04/15 00:41:28;;;;;;;4.10;3.03;;;;;;;;;;4994876;28;20057;-67
2022/04/15 00:43:56;;;;;;;4.72;3.60;;;;;;;;;;4994661;28;20050;-66
2022/04/15 00:46:22;;;;;;;5.65;3.53;;;;;;;;;;4994905;28;20401;-66
2022/04/15 00:48:49;;;;;;;6.07;3.42;;;;;;;;;;4994652;28;20104;-66
2022/04/15 00:51:16;;;;;;;6.28;4.10;;;;;;;;;;4994862;28;20058;-65
2022/04/15 00:53:44;;;;;;;4.88;3.20;;;;;;;;;;4994659;28;20054;-67
2022/04/15 00:56:12;;;;;;;6.78;3.53;;;;;;;;;;4993436;28;20057;-66
2022/04/15 00:58:39;;;;;;;4.05;3.50;;;;;;;;;;4994564;28;20046;-66
2022/04/15 01:01:09;;;;;;;3.70;3.22;;;;;;;;;;4994248;28;20492;-65
2022/04/15 01:03:37;;;;;;;5.55;3.60;;;;;;;;;;4994323;28;20074;-66
2022/04/15 01:06:04;;;;;;;6.10;3.50;;;;;;;;;;4994015;28;20054;-66
2022/04/15 01:08:31;;;;;;;6.53;3.50;;;;;;;;;;4994560;28;20104;-66
2022/04/15 01:10:58;;;;;;;5.75;4.20;;;;;;;;;;4994193;28;20082;-66
2022/04/15 01:13:26;;;;;;;4.57;3.70;;;;;;;;;;4994489;28;20061;-66
2022/04/15 01:15:55;;;;;;;4.82;3.92;;;;;;;;;;4994194;28;20054;-66
2022/04/15 01:18:21;;;;;;;4.82;3.67;;;;;;;;;;4994153;28;20562;-66
2022/04/15 01:20:50;;;;;;;5.00;3.55;;;;;;;;;;4994122;28;20467;-66
2022/04/15 01:23:17;;;;;;;6.65;3.55;;;;;;;;;;4994099;28;20138;-65
2022/04/15 01:25:44;;;;;;;6.88;3.75;;;;;;;;;;4992851;28;20072;-66
2022/04/15 01:28:11;;;;;;;4.78;3.47;;;;;;;;;;4994055;28;20089;-66
2022/04/15 01:30:38;;;;;;;6.35;3.65;;;;;;;;;;4994031;28;20406;-66
2022/04/15 01:33:04;;;;;;;5.22;3.60;;;;;;;;;;4993707;28;20066;-66
2022/04/15 01:35:33;;;;;;;9.85;5.72;;;;;;;;;;4993729;28;20563;-66
2022/04/15 01:38:02;;;;;;;28.13;14.80;;;;;;;;;;4993860;28;20137;-66
2022/04/15 01:40:29;;;;;;;30.23;15.23;;;;;;;;;;4977139;28;20109;-66
2022/04/15 01:42:55;;;;;;;32.78;18.98;;;;;;;;;;4993937;28;20054;-66
2022/04/15 01:45:22;;;;;;;11.30;7.65;;;;;;;;;;4993472;28;20050;-66
2022/04/15 01:47:50;;;;;;;7.90;4.15;;;;;;;;;;4993914;28;20322;-66
2022/04/15 01:50:17;;;;;;;5.45;3.60;;;;;;;;;;4993533;28;20046;-66
2022/04/15 01:52:44;;;;;;;4.63;3.58;;;;;;;;;;4993409;28;20100;-67
2022/04/15 01:55:10;;;;;;;5.03;3.58;;;;;;;;;;4992445;28;20062;-66
2022/04/15 01:57:37;;;;;;;5.45;4.10;;;;;;;;;;4993559;28;20050;-66
2022/04/15 02:00:04;;;;;;;6.50;4.13;;;;;;;;;;4993423;28;20054;-66
2022/04/15 02:02:31;;;;;;;5.15;4.05;;;;;;;;;;4993532;28;20058;-65
2022/04/15 02:04:58;;;;;;;8.52;3.88;;;;;;;;;;4993241;28;20050;-64
2022/04/15 02:07:25;;;;;;;5.70;3.90;;;;;;;;;;4992302;28;20069;-65
2022/04/15 02:09:52;;;;;;;6.53;3.88;;;;;;;;;;4993145;28;20050;-66
2022/04/15 02:12:18;;;;;;;7.32;4.35;;;;;;;;;;4993022;28;20054;-66
2022/04/15 02:14:47;;;;;;;5.22;4.32;;;;;;;;;;4992983;28;20050;-66
2022/04/15 02:17:14;;;;;;;6.80;4.35;;;;;;;;;;4991421;28;20501;-67
2022/04/15 02:19:40;;;;;;;5.30;4.43;;;;;;;;;;4993138;28;20401;-66
2022/04/15 02:22:07;;;;;;;6.40;3.80;;;;;;;;;;4992786;28;20046;-66
2022/04/15 02:24:34;;;;;;;5.57;4.25;;;;;;;;;;4992862;28;20493;-66
2022/04/15 02:27:00;;;;;;;5.45;4.47;;;;;;;;;;4992829;28;20398;-66
2022/04/15 02:29:27;;;;;;;7.32;4.47;;;;;;;;;;4992710;28;20050;-67
2022/04/15 02:31:53;;;;;;;5.65;4.30;;;;;;;;;;4992772;28;20050;-66
2022/04/15 02:34:20;;;;;;;5.25;4.35;;;;;;;;;;4992603;28;20509;-65
2022/04/15 02:36:47;;;;;;;6.78;4.90;;;;;;;;;;4992604;28;20050;-66
2022/04/15 02:39:13;;;;;;;8.07;5.35;;;;;;;;;;4992834;28;20101;-66
2022/04/15 02:41:41;;;;;;;10.27;4.95;;;;;;;;;;4992396;28;20081;-66
2022/04/15 02:44:08;;;;;;;8.00;4.85;;;;;;;;;;4991289;28;20050;-66
2022/04/15 02:46:35;;;;;;;4.95;4.45;;;;;;;;;;4991472;28;20395;-65
2022/04/15 02:49:02;;;;;;;5.40;4.90;;;;;;;;;;4992534;28;20046;-66
2022/04/15 02:51:29;;;;;;;9.40;6.00;;;;;;;;;;4992429;28;20072;-65
2022/04/15 02:53:56;;;;;;;6.55;4.95;;;;;;;;;;4992289;28;20047;-66
2022/04/15 02:56:22;;;;;;;8.15;5.55;;;;;;;;;;4992618;28;20058;-66
2022/04/15 02:58:49;;;;;;;7.20;4.95;;;;;;;;;;4992634;28;20050;-64
2022/04/15 03:01:16;;;;;;;7.95;6.00;;;;;;;;;;4992110;28;20136;-67
2022/04/15 03:03:42;;;;;;;8.50;5.50;;;;;;;;;;4992165;28;20133;-66
2022/04/15 03:06:09;;;;;;;6.95;5.82;;;;;;;;;;4992252;28;20065;-65
2022/04/15 03:08:36;;;;;;;11.63;5.70;;;;;;;;;;4992379;28;20057;-67
2022/04/15 03:11:02;;;;;;;8.57;5.70;;;;;;;;;;4992656;28;20054;-67
2022/04/15 03:13:29;;;;;;;9.30;6.45;;;;;;;;;;4992362;28;20057;-67
2022/04/15 03:16:02;;;;;;;10.30;6.53;;;;;;;;;;5013875;23;20046;-67
2022/04/15 03:18:29;;;;;;;8.75;6.25;;;;;;;;;;4991999;28;20082;-67
2022/04/15 03:20:55;;;;;;;9.43;6.38;;;;;;;;;;4992154;28;20186;-69
2022/04/15 03:23:22;;;;;;;9.52;5.57;;;;;;;;;;4992005;28;20394;-68
2022/04/15 03:25:48;;;;;;;9.38;5.82;;;;;;;;;;4992388;28;20050;-68
2022/04/15 03:28:15;;;;;;;10.82;6.10;;;;;;;;;;4994230;28;20050;-68
2022/04/15 03:30:42;;;;;;;10.60;6.05;;;;;;;;;;4995836;28;20519;-67
2022/04/15 03:33:09;;;;;;;7.72;6.07;;;;;;;;;;4995965;28;20046;-68
2022/04/15 03:35:35;;;;;;;8.90;5.80;;;;;;;;;;4996016;28;20567;-68
2022/04/15 03:38:02;;;;;;;7.50;5.95;;;;;;;;;;4995787;28;20427;-67
2022/04/15 03:40:28;;;;;;;10.88;6.43;;;;;;;;;;4995946;28;20047;-68
2022/04/15 03:42:56;;;;;;;8.63;6.10;;;;;;;;;;4995803;28;20069;-68
2022/04/15 03:45:23;;;;;;;8.25;6.10;;;;;;;;;;4996253;28;20139;-68
2022/04/15 03:47:51;;;;;;;8.07;5.75;;;;;;;;;;4995872;28;20447;-68
2022/04/15 03:50:18;;;;;;;11.98;6.10;;;;;;;;;;4997871;28;20050;-69
2022/04/15 03:52:48;;;;;;;8.23;6.30;;;;;;;;;;4999182;28;20065;-68
2022/04/15 03:55:26;;;;;;;9.90;6.15;;;;;;;;;;4982471;28;20109;-69
2022/04/15 03:57:53;;;;;;;10.20;6.20;;;;;;;;;;5001173;28;20050;-70
2022/04/15 04:00:22;;;;;;;8.68;6.43;;;;;;;;;;4999488;28;20042;-69
2022/04/15 04:02:52;;;;;;;10.25;6.93;;;;;;;;;;4998511;28;20389;-69
2022/04/15 04:05:21;;;;;;;8.27;6.10;;;;;;;;;;4999054;28;20105;-70
2022/04/15 04:07:49;;;;;;;9.80;6.38;;;;;;;;;;4999554;28;20055;-69
2022/04/15 04:10:16;;;;;;;8.98;6.45;;;;;;;;;;4998693;28;20121;-70
2022/04/15 04:12:44;;;;;;;7.65;6.47;;;;;;;;;;4999648;28;20098;-69
2022/04/15 04:15:13;;;;;;;11.38;6.95;;;;;;;;;;4995562;28;20201;-68
2022/04/15 04:17:40;;;;;;;11.10;6.95;;;;;;;;;;4995262;28;20054;-67
2022/04/15 04:20:09;;;;;;;8.73;6.72;;;;;;;;;;4995573;28;20046;-68
2022/04/15 04:22:36;;;;;;;8.05;7.05;;;;;;;;;;4994551;28;20479;-68
2022/04/15 04:25:05;;;;;;;9.88;7.13;;;;;;;;;;4994940;28;20065;-68
2022/04/15 04:27:32;;;;;;;12.40;7.35;;;;;;;;;;4995294;28;20050;-68
2022/04/15 04:29:58;;;;;;;11.40;7.28;;;;;;;;;;4994857;28;20046;-68
2022/04/15 04:32:25;;;;;;;9.23;6.60;;;;;;;;;;4995083;28;20050;-69
2022/04/15 04:34:51;;;;;;;8.82;6.25;;;;;;;;;;4994799;28;20050;-68
2022/04/15 04:37:18;;;;;;;15.40;6.28;;;;;;;;;;4994927;28;20058;-67
2022/04/15 04:39:45;;;;;;;6.35;5.65;;;;;;;;;;4994219;28;20053;-68
2022/04/15 04:42:11;;;;;;;6.43;5.40;;;;;;;;;;4994704;28;20062;-68
2022/04/15 04:44:38;;;;;;;6.22;5.25;;;;;;;;;;4993401;28;20054;-69
2022/04/15 04:47:06;;;;;;;8.63;4.90;;;;;;;;;;4993775;28;20061;-69
2022/04/15 04:49:33;;;;;;;5.72;4.57;;;;;;;;;;4994762;28;20560;-69
2022/04/15 04:52:00;;;;;;;7.50;5.50;;;;;;;;;;4993350;28;20046;-68
2022/04/15 04:54:27;;;;;;;8.65;5.03;;;;;;;;;;4994462;28;20100;-68
2022/04/15 04:56:53;;;;;;;8.48;4.78;;;;;;;;;;4994774;28;20050;-68
2022/04/15 04:59:22;;;;;;;6.18;4.63;;;;;;;;;;4994622;28;20076;-67
2022/04/15 05:01:48;;;;;;;8.02;5.03;;;;;;;;;;4994157;28;20054;-68
2022/04/15 05:04:15;;;;;;;6.78;4.90;;;;;;;;;;4994579;28;20093;-68
2022/04/15 05:06:42;;;;;;;5.45;4.22;;;;;;;;;;4994515;28;20054;-67
2022/04/15 05:09:09;;;;;;;8.45;4.78;;;;;;;;;;4994436;28;20054;-68
2022/04/15 05:11:35;;;;;;;7.45;3.60;;;;;;;;;;4994196;28;20505;-68
2022/04/15 05:14:02;;;;;;;4.25;3.67;;;;;;;;;;4994215;28;20046;-68
2022/04/15 05:16:29;;;;;;;5.80;4.10;;;;;;;;;;4994457;28;20050;-68
2022/04/15 05:18:55;;;;;;;6.30;4.07;;;;;;;;;;4994218;28;20082;-68
2022/04/15 05:21:23;;;;;;;6.13;3.90;;;;;;;;;;4994287;28;20056;-69
2022/04/15 05:23:49;;;;;;;5.88;4.10;;;;;;;;;;4994077;28;20054;-68
2022/04/15 05:26:16;;;;;;;6.80;4.07;;;;;;;;;;4994006;28;20061;-69
2022/04/15 05:28:43;;;;;;;10.77;3.75;;;;;;;;;;4994117;28;20424;-68
2022/04/15 05:31:09;;;;;;;6.03;3.92;;;;;;;;;;4993606;28;20046;-69
2022/04/15 05:33:36;;;;;;;5.47;3.47;;;;;;;;;;4994458;28;20420;-68
2022/04/15 05:36:03;;;;;;;7.07;4.25;;;;;;;;;;4994132;28;20468;-67
2022/04/15 05:38:29;;;;;;;7.15;3.88;;;;;;;;;;4994602;28;20417;-68
2022/04/15 05:40:56;;;;;;;7.18;4.30;;;;;;;;;;4993489;28;20424;-68
2022/04/15 05:43:23;;;;;;;5.15;4.15;;;;;;;;;;4993634;28;20062;-68
2022/04/15 05:45:50;;;;;;;4.13;3.72;;;;;;;;;;4993499;28;20501;-68
2022/04/15 05:48:16;;;;;;;6.80;3.80;;;;;;;;;;4993572;28;20501;-68
2022/04/15 05:50:43;;;;;;;7.55;4.22;;;;;;;;;;4992736;28;20051;-66
2022/04/15 05:53:16;;;;;;;4.10;3.50;;;;;;;;;;4993103;28;20070;-67
2022/04/15 05:55:42;;;;;;;4.93;3.60;;;;;;;;;;4993817;28;20058;-68
2022/04/15 05:58:10;;;;;;;5.97;4.18;;;;;;;;;;4993568;28;20057;-68
2022/04/15 06:00:37;;;;;;;5.45;4.20;;;;;;;;;;4993926;28;20046;-69
2022/04/15 06:03:04;;;;;;;8.00;4.68;;;;;;;;;;4993930;28;20056;-68
2022/04/15 06:05:31;;;;;;;6.07;4.25;;;;;;;;;;4994685;28;20050;-68
2022/04/15 06:07:59;;;;;;;7.13;3.63;;;;;;;;;;4998667;28;20064;-68
2022/04/15 06:10:30;;;;;;;7.85;4.70;;;;;;;;;;4997731;28;20402;-69
2022/04/15 06:13:09;;;;;;;4.93;3.85;;;;;;;;;;4998867;28;20142;-69
2022/04/15 06:15:41;;;;;;;6.05;3.88;;;;;;;;;;4998200;28;20050;-68
2022/04/15 06:18:11;;;;;;;6.80;4.65;;;;;;;;;;4997253;28;20417;-67
2022/04/15 06:20:41;;;;;;;5.05;4.55;;;;;;;;;;4999855;28;20117;-67
2022/04/15 06:23:08;;;;;;;5.25;4.35;;;;;;;;;;5000591;28;20054;-68
2022/04/15 06:25:35;;;;;;;4.25;3.85;;;;;;;;;;5000395;28;20060;-69
2022/04/15 06:28:07;;;;;;;5.15;4.65;;;;;;;;;;5000863;28;20053;-68
2022/04/15 06:30:37;;;;;;;5.28;4.43;;;;;;;;;;4996172;28;20046;-69
2022/04/15 06:33:06;;;;;;;8.57;5.03;;;;;;;;;;4992274;28;20129;-69
2022/04/15 06:35:34;;;;;;;5.57;4.55;;;;;;;;;;4982495;28;20046;-69
2022/04/15 06:38:01;;;;;;;6.15;5.10;;;;;;;;;;4998932;28;20046;-68
2022/04/15 06:40:29;;;;;;;6.72;5.32;;;;;;;;;;4998787;28;20050;-67
2022/04/15 06:42:56;;;;;;;7.00;4.82;;;;;;;;;;4998439;28;20050;-70
2022/04/15 06:45:24;;;;;;;6.55;4.80;;;;;;;;;;4999094;28;20046;-68
2022/04/15 06:47:51;;;;;;;7.82;5.97;;;;;;;;;;4998715;28;20077;-69
2022/04/15 06:50:21;;;;;;;7.97;5.78;;;;;;;;;;4997153;28;20050;-70
2022/04/15 06:52:49;;;;;;;7.97;6.25;;;;;;;;;;4997710;28;20054;-69
2022/04/15 06:55:17;;;;;;;9.60;6.60;;;;;;;;;;4997809;28;20478;-69
2022/04/15 06:57:44;;;;;;;8.63;6.68;;;;;;;;;;5011241;28;20513;-69
2022/04/15 07:00:13;;;;;;;10.98;7.53;;;;;;;;;;4994785;28;20460;-68
2022/04/15 07:02:41;;;;;;;14.95;9.50;;;;;;;;;;4995896;28;20050;-69
2022/04/15 07:05:09;;;;;;;9.88;8.10;;;;;;;;;;4994654;28;20509;-69
2022/04/15 07:07:37;;;;;;;12.60;9.43;;;;;;;;;;4995114;28;20074;-69
2022/04/15 07:10:09;;;;;;;12.05;8.90;;;;;;;;;;4994306;28;20074;-69
2022/04/15 07:12:36;;;;;;;14.77;9.35;;;;;;;;;;4991696;28;20111;-69
2022/04/15 07:15:04;;;;;;;13.60;9.73;;;;;;;;;;4992938;28;20093;-68
2022/04/15 07:17:31;;;;;;;13.43;9.68;;;;;;;;;;4993720;28;20050;-69
2022/04/15 07:19:59;;;;;;;12.40;9.57;;;;;;;;;;4993775;28;20054;-69
2022/04/15 07:22:26;;;;;;;11.27;9.50;;;;;;;;;;4993651;28;20065;-69
2022/04/15 07:24:53;;;;;;;11.82;9.05;;;;;;;;;;4993967;28;20116;-69
2022/04/15 07:27:20;;;;;;;10.88;9.43;;;;;;;;;;4992880;28;20109;-68
2022/04/15 07:29:50;;;;;;;15.65;10.27;;;;;;;;;;4992319;28;20050;-68
2022/04/15 07:32:21;;;;;;;14.70;10.05;;;;;;;;;;4991328;28;20077;-69
2022/04/15 07:34:49;;;;;;;13.63;10.10;;;;;;;;;;4975184;28;20347;-69
2022/04/15 07:37:17;;;;;;;14.88;9.50;;;;;;;;;;4993045;28;20058;-69
2022/04/15 07:39:44;;;;;;;12.90;10.25;;;;;;;;;;4993198;28;20081;-69
2022/04/15 07:42:12;;;;;;;15.43;10.05;;;;;;;;;;4991567;28;20051;-69
2022/04/15 07:44:40;;;;;;;13.38;9.55;;;;;;;;;;4991753;28;20058;-70
2022/04/15 07:47:08;;;;;;;13.75;10.40;;;;;;;;;;4991804;28;20093;-69
2022/04/15 07:49:35;;;;;;;15.48;11.48;;;;;;;;;;4993259;28;20161;-70
2022/04/15 07:52:04;;;;;;;15.43;10.27;;;;;;;;;;4993422;28;20497;-70
2022/04/15 07:54:33;;;;;;;14.00;11.15;;;;;;;;;;4994710;28;20058;-68
2022/04/15 07:57:01;;;;;;;13.98;11.35;;;;;;;;;;4992881;28;20050;-68
2022/04/15 07:59:28;;;;;;;15.05;11.52;;;;;;;;;;4990023;28;20093;-70
2022/04/15 08:02:05;;;;;;;12.40;10.38;;;;;;;;;;4993135;28;20080;-69
2022/04/15 08:04:34;;;;;;;15.60;11.82;;;;;;;;;;4994087;28;20054;-69
2022/04/15 08:07:01;;;;;;;12.85;10.02;;;;;;;;;;4993966;28;20113;-69
2022/04/15 08:09:28;;;;;;;12.38;10.57;;;;;;;;;;4992047;28;20665;-69
2022/04/15 08:11:56;;;;;;;15.57;11.30;;;;;;;;;;4991034;28;20054;-68
2022/04/15 08:14:22;;;;;;;12.88;11.00;;;;;;;;;;4991137;28;20054;-68
2022/04/15 08:16:49;;;;;;;13.10;10.30;;;;;;;;;;4994124;28;20060;-68
2022/04/15 08:19:17;;;;;;;14.15;11.02;;;;;;;;;;4993705;28;20065;-68
2022/04/15 08:21:43;;;;;;;15.25;11.30;;;;;;;;;;4976777;28;20051;-66
2022/04/15 08:24:10;;;;;;;13.85;11.00;;;;;;;;;;4986282;28;20046;-67
2022/04/15 08:26:37;;;;;;;16.35;11.95;;;;;;;;;;4980547;28;20062;-65
2022/04/15 08:29:04;;;;;;;13.18;11.35;;;;;;;;;;4980383;28;20359;-67
2022/04/15 08:31:30;;;;;;;13.88;11.25;;;;;;;;;;4979237;28;20057;-67
2022/04/15 08:33:58;;;;;;;14.93;12.13;;;;;;;;;;4979034;28;20050;-67
2022/04/15 08:36:26;;;;;;;13.73;11.18;;;;;;;;;;4980384;28;20540;-66
2022/04/15 08:38:53;;;;;;;13.68;11.38;;;;;;;;;;4979607;28;20050;-69
2022/04/15 08:41:19;;;;;;;15.23;11.63;;;;;;;;;;4983391;28;20047;-68
2022/04/15 08:43:46;;;;;;;17.40;11.05;;;;;;;;;;4978072;28;20049;-67
2022/04/15 08:46:13;;;;;;;12.45;11.02;;;;;;;;;;4979012;28;20057;-68
2022/04/15 08:48:40;;;;;;;14.02;11.55;;;;;;;;;;4980491;28;20513;-67
2022/04/15 08:51:08;;;;;;;14.10;12.18;;;;;;;;;;4980451;28;20408;-67
2022/04/15 08:53:37;;;;;;;14.43;12.23;;;;;;;;;;4982986;28;20190;-69
2022/04/15 08:56:04;;;;;;;18.15;13.00;;;;;;;;;;4978732;28;20058;-67
2022/04/15 08:58:35;;;;;;;14.30;11.02;;;;;;;;;;4980917;28;20493;-66
2022/04/15 09:01:07;;;;;;;13.23;11.68;;;;;;;;;;4980510;28;20138;-67
2022/04/15 09:03:35;;;;;;;15.13;12.23;;;;;;;;;;4979349;28;20054;-68
2022/04/15 09:06:01;;;;;;;15.40;12.30;;;;;;;;;;4979494;28;20497;-68
2022/04/15 09:08:29;;;;;;;13.55;11.43;;;;;;;;;;4978768;28;20055;-68
2022/04/15 09:10:57;;;;;;;17.25;13.52;;;;;;;;;;4979638;28;20090;-68
2022/04/15 09:13:28;;;;;;;14.65;12.45;;;;;;;;;;4979650;28;20061;-67
2022/04/15 09:15:55;;;;;;;12.55;11.25;;;;;;;;;;4980017;28;20057;-67
2022/04/15 09:18:36;;;;;;;12.65;11.18;;;;;;;;;;4995748;28;20054;-66
2022/04/15 09:21:22;;;;;;;14.68;12.65;;;;;;;;;;4980906;28;20057;-72
2022/04/15 09:23:54;;;;;;;14.63;11.88;;;;;;;;;;5003744;23;20050;-72
2022/04/15 09:26:21;;;;;;;12.35;11.15;;;;;;;;;;4980107;28;20050;-75
2022/04/15 09:28:48;;;;;;;15.15;12.05;;;;;;;;;;4983344;28;20055;-73
2022/04/15 09:31:16;;;;;;;12.70;11.20;;;;;;;;;;4981078;28;20043;-73
2022/04/15 09:34:00;;;;;;;11.85;10.65;;;;;;;;;;4982184;28;20054;-72
2022/04/15 09:36:34;;;;;;;15.15;10.90;;;;;;;;;;4982837;28;20058;-74
2022/04/15 09:39:02;;;;;;;15.55;12.13;;;;;;;;;;4983673;28;20054;-73
2022/04/15 09:41:29;;;;;;;11.75;10.52;;;;;;;;;;4983869;28;20046;-68
2022/04/15 09:44:00;;;;;;;14.70;11.02;;;;;;;;;;4979866;28;20043;-72
2022/04/15 09:46:29;;;;;;;14.55;11.82;;;;;;;;;;4981628;28;20522;-69
2022/04/15 09:49:16;;;;;;;13.90;11.23;;;;;;;;;;4982734;28;20556;-69
2022/04/15 09:51:44;;;;;;;12.35;10.77;;;;;;;;;;4981120;28;20101;-68
2022/04/15 09:54:20;;;;;;;14.13;11.48;;;;;;;;;;4983735;28;20047;-67
2022/04/15 09:56:47;;;;;;;17.83;13.00;;;;;;;;;;4982544;28;20051;-66
2022/04/15 09:59:15;;;;;;;13.82;11.55;;;;;;;;;;4968767;28;20046;-67
2022/04/15 10:01:44;;;;;;;15.57;13.23;;;;;;;;;;4971644;28;20101;-70
2022/04/15 10:04:14;;;;;;;13.63;12.13;;;;;;;;;;4989448;28;20508;-66
2022/04/15 10:06:42;;;;;;;14.68;12.95;;;;;;;;;;4988052;28;20053;-69
2022/04/15 10:09:12;;;;;;;13.30;11.90;;;;;;;;;;4981358;28;20501;-66
2022/04/15 10:11:41;;;;;;;13.95;12.55;;;;;;;;;;4998285;28;20161;-70
2022/04/15 10:14:12;;;;;;;17.02;13.80;;;;;;;;;;5002572;28;20056;-69
2022/04/15 10:16:42;;;;;;;16.90;13.68;;;;;;;;;;5001165;28;20056;-72
2022/04/15 10:19:10;;;;;;;16.80;13.10;;;;;;;;;;4998076;28;20386;-70
2022/04/15 10:21:42;;;;;;;13.20;11.80;;;;;;;;;;5002407;28;20042;-72
2022/04/15 10:24:09;;;;;;;14.30;12.85;;;;;;;;;;5012880;28;20509;-73
2022/04/15 10:26:46;;;;;;;13.75;12.00;;;;;;;;;;4998553;28;20057;-65
2022/04/15 10:29:13;;;;;;;16.17;12.70;;;;;;;;;;4999769;28;20500;-65
2022/04/15 10:31:44;;;;;;;13.27;10.65;;;;;;;;;;4997478;28;20137;-66
2022/04/15 10:34:12;;;;;;;14.50;11.88;;;;;;;;;;4995821;28;20049;-65
2022/04/15 10:36:49;;;;;;;13.63;11.88;;;;;;;;;;4996740;28;20054;-66
2022/04/15 10:39:24;;;;;;;14.93;11.20;;;;;;;;;;5001137;28;20046;-65
2022/04/15 10:41:52;;;;;;;12.32;10.90;;;;;;;;;;5002032;28;20710;-66
2022/04/15 10:44:36;;;;;;;13.48;11.40;;;;;;;;;;4997510;28;20064;-65
2022/04/15 10:47:04;;;;;;;14.15;11.75;;;;;;;;;;4998275;28;20050;-66
2022/04/15 10:49:30;;;;;;;14.50;12.43;;;;;;;;;;4999502;28;20052;-66
2022/04/15 10:52:15;;;;;;;12.98;11.57;;;;;;;;;;4996761;28;20050;-66
2022/04/15 10:54:45;;;;;;;12.02;10.80;;;;;;;;;;4997412;28;20053;-66
2022/04/15 10:57:14;;;;;;;14.38;10.23;;;;;;;;;;4998252;28;20047;-65
2022/04/15 11:02:38;;;;;;;11.35;10.15;;;;;;;;;;4997564;28;20049;-66
2022/04/15 11:05:06;;;;;;;9.05;7.97;;;;;;;;;;4997413;28;20054;-65
2022/04/15 11:07:50;;;;;;;8.88;7.57;;;;;;;;;;4996462;28;20050;-66
2022/04/15 11:10:38;;;;;;;8.85;7.45;;;;;;;;;;4998282;28;20130;-65
2022/04/15 11:13:05;;;;;;;7.60;6.60;;;;;;;;;;4997162;28;20497;-66
2022/04/15 11:16:03;;;;;;;11.38;7.47;;;;;;;;;;4998580;28;20080;-66
2022/04/15 11:18:53;;;;;;;9.82;7.55;;;;;;;;;;4999759;28;20066;-66
2022/04/15 11:21:32;;;;;;;8.32;6.70;;;;;;;;;;4999151;28;20467;-66
2022/04/15 11:24:08;;;;;;;9.30;6.90;;;;;;;;;;4997238;28;20133;-66
2022/04/15 11:26:40;;;;;;;8.52;6.82;;;;;;;;;;5002116;28;20060;-65
2022/04/15 11:29:07;;;;;;;7.80;6.50;;;;;;;;;;4999751;28;20050;-65
2022/04/15 11:31:38;;;;;;;9.38;8.18;;;;;;;;;;4998235;28;20077;-65
2022/04/15 11:34:15;;;;;;;10.95;7.25;;;;;;;;;;4999615;28;20568;-65
2022/04/15 11:36:47;;;;;;;10.63;8.50;;;;;;;;;;4997689;28;20050;-65
2022/04/15 11:39:20;;;;;;;10.10;8.23;;;;;;;;;;5000497;28;20261;-65
2022/04/15 11:41:52;;;;;;;12.30;7.82;;;;;;;;;;5000542;28;20050;-65
2022/04/15 11:44:20;;;;;;;11.68;8.35;;;;;;;;;;4996299;28;20047;-65
2022/04/15 11:46:48;;;;;;;7.95;6.75;;;;;;;;;;4999127;28;20054;-65
2022/04/15 11:49:22;;;;;;;7.43;6.30;;;;;;;;;;4999449;28;20042;-64
2022/04/15 11:51:51;;;;;;;9.48;6.85;;;;;;;;;;5004129;28;20061;-64
2022/04/15 11:54:24;;;;;;;8.63;7.40;;;;;;;;;;5004800;28;20547;-65
2022/04/15 11:56:54;;;;;;;11.82;7.88;;;;;;;;;;5001836;28;20553;-65
2022/04/15 11:59:20;;;;;;;12.18;8.93;;;;;;;;;;5006593;28;20080;-65
2022/04/15 12:01:47;;;;;;;9.77;8.65;;;;;;;;;;5001168;28;20046;-64
2022/04/15 12:04:16;;;;;;;10.95;7.82;;;;;;;;;;5002319;28;20045;-64
2022/04/15 12:06:43;;;;;;;11.55;8.05;;;;;;;;;;5002680;28;20065;-65
2022/04/15 12:09:11;;;;;;;10.48;8.93;;;;;;;;;;5004432;28;20048;-66
2022/04/15 12:11:57;;;;;;;11.23;7.95;;;;;;;;;;5004053;28;20070;-68
2022/04/15 12:14:37;;;;;;;11.40;8.15;;;;;;;;;;5000699;28;20054;-68
2022/04/15 12:17:07;;;;;;;8.82;7.45;;;;;;;;;;5007566;28;20046;-70
2022/04/15 12:19:35;;;;;;;7.50;6.65;;;;;;;;;;5012352;28;20042;-66
2022/04/15 12:22:02;;;;;;;9.30;7.05;;;;;;;;;;5013862;28;20050;-65
2022/04/15 12:24:31;;;;;;;8.25;6.88;;;;;;;;;;5012756;28;20058;-65
2022/04/15 12:27:01;;;;;;;8.85;6.63;;;;;;;;;;5014478;28;20051;-65
2022/04/15 12:29:47;;;;;;;9.68;7.43;;;;;;;;;;5014775;28;20054;-65
2022/04/15 12:32:35;;;;;;;9.57;6.38;;;;;;;;;;5014373;28;20511;-65
2022/04/15 12:35:05;;;;;;;6.10;5.50;;;;;;;;;;5014352;28;20049;-65
2022/04/15 12:37:35;;;;;;;6.13;4.80;;;;;;;;;;5014156;28;20056;-65
2022/04/15 12:40:17;;;;;;;8.40;5.78;;;;;;;;;;5014639;28;20524;-65
2022/04/15 12:42:46;;;;;;;6.53;4.15;;;;;;;;;;5014031;28;20050;-65
2022/04/15 12:45:21;;;;;;;4.82;3.58;;;;;;;;;;5012272;28;20436;-66
2022/04/15 12:48:02;;;;;;;8.45;5.03;;;;;;;;;;5000048;28;20528;-65
2022/04/15 12:50:33;;;;;;;4.70;3.40;;;;;;;;;;5004247;28;20046;-65
2022/04/15 12:53:01;;;;;;;6.70;3.75;;;;;;;;;;5001866;28;20348;-65
2022/04/15 12:55:29;;;;;;;5.18;2.88;;;;;;;;;;4999400;28;20057;-65
2022/04/15 12:57:58;;;;;;;4.00;2.92;;;;;;;;;;5000487;28;20050;-65
2022/04/15 13:00:25;;;;;;;5.05;3.20;;;;;;;;;;5000871;28;20050;-65
2022/04/15 13:02:52;;;;;;;4.93;2.90;;;;;;;;;;5002112;28;20057;-65
2022/04/15 13:05:19;;;;;;;2.85;2.60;;;;;;;;;;5002151;28;20046;-65
2022/04/15 13:07:49;;;;;;;3.83;3.28;;;;;;;;;;5002341;28;20046;-65
2022/04/15 13:10:16;;;;;;;3.25;2.45;;;;;;;;;;5003028;28;20141;-67
2022/04/15 13:13:01;;;;;;;4.45;3.00;;;;;;;;;;5002587;28;20049;-66
2022/04/15 13:15:28;;;;;;;4.70;3.92;;;;;;;;;;5002469;28;20824;-66
2022/04/15 13:17:55;;;;;;;4.85;4.07;;;;;;;;;;5000550;28;20564;-66
2022/04/15 13:20:22;;;;;;;4.78;4.20;;;;;;;;;;5000759;28;20046;-66
2022/04/15 13:22:48;;;;;;;4.45;4.05;;;;;;;;;;5000118;28;20047;-67
2022/04/15 13:25:15;;;;;;;6.05;4.55;;;;;;;;;;5000830;28;20428;-65
2022/04/15 13:27:42;;;;;;;7.25;4.22;;;;;;;;;;4999944;28;20050;-64
2022/04/15 13:30:08;;;;;;;5.22;3.95;;;;;;;;;;5003973;28;20053;-64
2022/04/15 13:32:35;;;;;;;5.40;4.10;;;;;;;;;;4998780;28;20046;-66
2022/04/15 13:35:02;;;;;;;5.72;3.88;;;;;;;;;;5003724;28;20046;-66
2022/04/15 13:37:28;;;;;;;5.07;3.40;;;;;;;;;;4999074;28;20053;-65
2022/04/15 13:39:55;;;;;;;4.28;3.88;;;;;;;;;;5000955;28;20076;-65
2022/04/15 13:42:22;;;;;;;4.03;3.60;;;;;;;;;;5000833;28;20125;-65
2022/04/15 13:44:49;;;;;;;4.32;3.92;;;;;;;;;;5002031;28;20048;-65
2022/04/15 13:47:15;;;;;;;6.15;4.68;;;;;;;;;;5001542;28;20072;-64
2022/04/15 13:49:48;;;;;;;5.40;3.83;;;;;;;;;;5000222;28;20128;-64
2022/04/15 13:57:50;;;;;;;4.47;2.80;;;;;;;;;;5002033;28;20046;-69
2022/04/15 14:00:17;;;;;;;6.28;3.20;;;;;;;;;;5000472;28;20046;-66
2022/04/15 14:02:45;;;;;;;3.65;2.88;;;;;;;;;;4998461;28;20485;-65
2022/04/15 14:05:13;;;;;;;3.85;2.42;;;;;;;;;;4999097;28;20575;-65
2022/04/15 14:07:40;;;;;;;3.05;2.75;;;;;;;;;;4998439;28;20050;-65
2022/04/15 14:10:07;;;;;;;3.40;2.97;;;;;;;;;;5002262;28;20425;-65
2022/04/15 14:12:35;;;;;;;6.70;3.47;;;;;;;;;;5001684;28;20050;-65
2022/04/15 14:15:06;;;;;;;3.30;2.70;;;;;;;;;;4999166;28;20055;-65
2022/04/15 14:17:32;;;;;;;3.63;2.85;;;;;;;;;;5000358;28;20058;-66
2022/04/15 14:19:59;;;;;;;5.63;2.67;;;;;;;;;;4998172;28;20501;-65
2022/04/15 14:22:26;;;;;;;5.40;2.50;;;;;;;;;;4998015;28;20054;-65
2022/04/15 14:24:52;;;;;;;4.55;2.30;;;;;;;;;;4998151;28;20051;-65
2022/04/15 14:27:19;;;;;;;2.45;2.00;;;;;;;;;;4999904;28;20176;-65
2022/04/15 14:29:47;;;;;;;4.82;2.13;;;;;;;;;;4997947;28;20054;-65
2022/04/15 14:32:13;;;;;;;3.47;2.80;;;;;;;;;;4999780;28;20045;-65
2022/04/15 14:34:40;;;;;;;4.75;2.63;;;;;;;;;;4997688;28;20520;-66
2022/04/15 14:37:07;;;;;;;4.43;2.42;;;;;;;;;;5000020;28;20072;-69
2022/04/15 14:39:33;;;;;;;5.07;2.58;;;;;;;;;;4995751;28;20111;-68
2022/04/15 14:42:00;;;;;;;3.50;2.47;;;;;;;;;;5002948;28;20049;-71
2022/04/15 14:44:27;;;;;;;6.32;3.20;;;;;;;;;;5001812;28;20059;-71
2022/04/15 14:46:58;;;;;;;3.65;2.67;;;;;;;;;;4998116;28;20101;-72
2022/04/15 14:49:24;;;;;;;3.42;2.58;;;;;;;;;;4999830;28;20054;-72
2022/04/15 14:51:52;;;;;;;3.47;2.55;;;;;;;;;;5000971;28;20061;-71
2022/04/15 14:54:20;;;;;;;3.85;2.13;;;;;;;;;;4997686;28;20062;-71